sensor_id;sensor_type;location;lat;lon;timestamp;temperature;humidity
15450;DHT22;7826;49.784;9.934;2023-04-30T00:00:24;7.90;99.90
15450;DHT22;7826;49.784;9.934;2023-04-30T00:02:51;7.70;99.90
15450;DHT22;7826;49.784;9.934;2023-04-30T00:05:17;7.80;99.90
15450;DHT22;7826;49.784;9.934;2023-04-30T00:07:44;7.70;99.90
15450;DHT22;7826;49.784;9.934;2023-04-30T00:10:11;7.60;99.90
15450;DHT22;7826;49.784;9.934;2023-04-30T00:12:37;7.60;99.90
15450;DHT22;7826;49.784;9.934;2023-04-30T00:15:05;7.60;99.90
15450;DHT22;7826;49.784;9.934;2023-04-30T00:17:31;7.50;99.90
15450;DHT22;7826;49.784;9.934;2023-04-30T00:19:58;7.50;99.90
15450;DHT22;7826;49.784;9.934;2023-04-30T00:22:26;7.40;99.90
15450;DHT22;7826;49.784;9.934;2023-04-30T00:24:52;7.50;99.90
15450;DHT22;7826;49.784;9.934;2023-04-30T00:27:19;7.40;99.90
15450;DHT22;7826;49.784;9.934;2023-04-30T00:29:46;7.40;99.90
15450;DHT22;7826;49.784;9.934;2023-04-30T00:32:12;7.40;99.90
15450;DHT22;7826;49.784;9.934;2023-04-30T00:34:39;7.40;99.90
15450;DHT22;7826;49.784;9.934;2023-04-30T00:37:06;7.30;1.00
15450;DHT22;7826;49.784;9.934;2023-04-30T00:39:32;7.30;1.00
15450;DHT22;7826;49.784;9.934;2023-04-30T00:41:59;7.30;1.00
15450;DHT22;7826;49.784;9.934;2023-04-30T00:44:25;7.30;1.00
15450;DHT22;7826;49.784;9.934;2023-04-30T00:46:51;7.20;1.00
15450;DHT22;7826;49.784;9.934;2023-04-30T00:49:18;7.20;1.00
15450;DHT22;7826;49.784;9.934;2023-04-30T00:51:44;7.10;1.00
15450;DHT22;7826;49.784;9.934;2023-04-30T00:54:10;7.10;1.00
15450;DHT22;7826;49.784;9.934;2023-04-30T00:56:37;7.10;1.00
15450;DHT22;7826;49.784;9.934;2023-04-30T00:59:04;7.00;1.00
15450;DHT22;7826;49.784;9.934;2023-04-30T01:01:31;7.00;1.00
15450;DHT22;7826;49.784;9.934;2023-04-30T01:03:57;7.00;1.00
15450;DHT22;7826;49.784;9.934;2023-04-30T01:06:24;6.90;98.00
15450;DHT22;7826;49.784;9.934;2023-04-30T01:08:52;6.90;1.00
15450;DHT22;7826;49.784;9.934;2023-04-30T01:16:47;6.90;1.00
15450;DHT22;7826;49.784;9.934;2023-04-30T01:19:35;6.80;1.00
15450;DHT22;7826;49.784;9.934;2023-04-30T01:22:04;6.70;1.00
15450;DHT22;7826;49.784;9.934;2023-04-30T01:25:06;6.70;1.00
15450;DHT22;7826;49.784;9.934;2023-04-30T01:30:24;6.70;1.00
15450;DHT22;7826;49.784;9.934;2023-04-30T01:32:51;6.70;70.50
15450;DHT22;7826;49.784;9.934;2023-04-30T01:35:17;6.60;1.00
15450;DHT22;7826;49.784;9.934;2023-04-30T01:38:02;6.60;1.00
15450;DHT22;7826;49.784;9.934;2023-04-30T01:40:46;6.60;1.00
15450;DHT22;7826;49.784;9.934;2023-04-30T01:44:05;6.50;1.00
15450;DHT22;7826;49.784;9.934;2023-04-30T01:46:28;6.50;1.00
15450;DHT22;7826;49.784;9.934;2023-04-30T01:49:11;6.40;1.00
15450;DHT22;7826;49.784;9.934;2023-04-30T01:51:42;6.40;1.00
15450;DHT22;7826;49.784;9.934;2023-04-30T01:54:25;6.40;1.00
15450;DHT22;7826;49.784;9.934;2023-04-30T01:57:06;6.40;1.00
15450;DHT22;7826;49.784;9.934;2023-04-30T01:59:38;6.30;1.00
15450;DHT22;7826;49.784;9.934;2023-04-30T02:02:05;6.30;1.00
15450;DHT22;7826;49.784;9.934;2023-04-30T02:04:31;6.20;1.00
15450;DHT22;7826;49.784;9.934;2023-04-30T02:06:58;6.20;1.00
15450;DHT22;7826;49.784;9.934;2023-04-30T02:09:24;6.10;1.00
15450;DHT22;7826;49.784;9.934;2023-04-30T02:11:50;6.10;1.00
15450;DHT22;7826;49.784;9.934;2023-04-30T02:14:17;6.00;1.00
15450;DHT22;7826;49.784;9.934;2023-04-30T02:16:43;6.00;1.00
15450;DHT22;7826;49.784;9.934;2023-04-30T02:19:09;6.00;1.00
15450;DHT22;7826;49.784;9.934;2023-04-30T02:21:37;5.90;1.00
15450;DHT22;7826;49.784;9.934;2023-04-30T02:24:04;5.80;1.00
15450;DHT22;7826;49.784;9.934;2023-04-30T02:26:30;5.80;1.00
15450;DHT22;7826;49.784;9.934;2023-04-30T02:28:57;5.80;1.00
15450;DHT22;7826;49.784;9.934;2023-04-30T02:31:23;5.80;1.00
15450;DHT22;7826;49.784;9.934;2023-04-30T02:33:49;5.80;1.00
15450;DHT22;7826;49.784;9.934;2023-04-30T02:36:16;5.70;1.00
15450;DHT22;7826;49.784;9.934;2023-04-30T02:38:42;5.80;1.00
15450;DHT22;7826;49.784;9.934;2023-04-30T02:41:08;5.70;99.90
15450;DHT22;7826;49.784;9.934;2023-04-30T02:43:35;5.70;99.90
15450;DHT22;7826;49.784;9.934;2023-04-30T02:46:01;5.60;99.90
15450;DHT22;7826;49.784;9.934;2023-04-30T02:48:27;5.60;34.50
15450;DHT22;7826;49.784;9.934;2023-04-30T02:50:57;5.60;99.90
15450;DHT22;7826;49.784;9.934;2023-04-30T02:53:23;5.60;99.90
15450;DHT22;7826;49.784;9.934;2023-04-30T02:55:50;5.60;99.90
15450;DHT22;7826;49.784;9.934;2023-04-30T02:58:16;5.50;1.00
15450;DHT22;7826;49.784;9.934;2023-04-30T03:00:43;5.50;99.90
15450;DHT22;7826;49.784;9.934;2023-04-30T03:03:09;5.50;99.90
15450;DHT22;7826;49.784;9.934;2023-04-30T03:05:36;5.40;99.90
15450;DHT22;7826;49.784;9.934;2023-04-30T03:10:30;5.30;1.00
15450;DHT22;7826;49.784;9.934;2023-04-30T03:12:56;5.30;1.00
15450;DHT22;7826;49.784;9.934;2023-04-30T03:15:23;5.20;1.00
15450;DHT22;7826;49.784;9.934;2023-04-30T03:17:49;5.40;99.90
15450;DHT22;7826;49.784;9.934;2023-04-30T03:20:18;5.40;99.90
15450;DHT22;7826;49.784;9.934;2023-04-30T03:22:45;5.40;99.90
15450;DHT22;7826;49.784;9.934;2023-04-30T03:25:11;5.40;99.90
15450;DHT22;7826;49.784;9.934;2023-04-30T03:27:37;5.30;99.90
15450;DHT22;7826;49.784;9.934;2023-04-30T03:30:04;5.30;99.90
15450;DHT22;7826;49.784;9.934;2023-04-30T03:32:32;5.20;99.90
15450;DHT22;7826;49.784;9.934;2023-04-30T03:34:58;5.20;39.10
15450;DHT22;7826;49.784;9.934;2023-04-30T03:37:25;5.20;99.90
15450;DHT22;7826;49.784;9.934;2023-04-30T03:39:51;5.10;99.90
15450;DHT22;7826;49.784;9.934;2023-04-30T03:42:36;5.10;99.90
15450;DHT22;7826;49.784;9.934;2023-04-30T03:45:03;5.20;1.00
15450;DHT22;7826;49.784;9.934;2023-04-30T03:47:29;5.10;80.10
15450;DHT22;7826;49.784;9.934;2023-04-30T03:49:55;5.00;99.90
15450;DHT22;7826;49.784;9.934;2023-04-30T03:52:22;5.00;99.90
15450;DHT22;7826;49.784;9.934;2023-04-30T03:54:48;5.00;99.90
15450;DHT22;7826;49.784;9.934;2023-04-30T03:57:14;5.00;99.90
15450;DHT22;7826;49.784;9.934;2023-04-30T03:59:41;4.90;1.00
15450;DHT22;7826;49.784;9.934;2023-04-30T04:02:08;4.90;99.90
15450;DHT22;7826;49.784;9.934;2023-04-30T04:04:34;4.90;99.90
15450;DHT22;7826;49.784;9.934;2023-04-30T04:07:00;4.90;99.90
15450;DHT22;7826;49.784;9.934;2023-04-30T04:09:28;5.00;99.90
15450;DHT22;7826;49.784;9.934;2023-04-30T04:11:55;5.00;99.90
15450;DHT22;7826;49.784;9.934;2023-04-30T04:14:21;4.90;99.90
15450;DHT22;7826;49.784;9.934;2023-04-30T04:16:47;5.00;1.00
15450;DHT22;7826;49.784;9.934;2023-04-30T04:19:14;4.90;99.90
15450;DHT22;7826;49.784;9.934;2023-04-30T04:21:40;4.90;99.90
15450;DHT22;7826;49.784;9.934;2023-04-30T04:24:06;4.80;1.00
15450;DHT22;7826;49.784;9.934;2023-04-30T04:26:34;4.80;1.00
15450;DHT22;7826;49.784;9.934;2023-04-30T04:29:02;4.80;1.00
15450;DHT22;7826;49.784;9.934;2023-04-30T04:31:30;4.80;1.00
15450;DHT22;7826;49.784;9.934;2023-04-30T04:34:02;4.90;1.00
15450;DHT22;7826;49.784;9.934;2023-04-30T04:36:30;4.80;1.00
15450;DHT22;7826;49.784;9.934;2023-04-30T04:38:57;4.80;99.90
15450;DHT22;7826;49.784;9.934;2023-04-30T04:41:31;4.80;1.00
15450;DHT22;7826;49.784;9.934;2023-04-30T04:44:01;4.80;1.00
15450;DHT22;7826;49.784;9.934;2023-04-30T04:46:29;4.80;1.00
15450;DHT22;7826;49.784;9.934;2023-04-30T04:48:57;4.80;1.00
15450;DHT22;7826;49.784;9.934;2023-04-30T04:51:23;4.90;1.00
15450;DHT22;7826;49.784;9.934;2023-04-30T04:53:50;4.80;1.00
15450;DHT22;7826;49.784;9.934;2023-04-30T04:56:16;4.80;1.00
15450;DHT22;7826;49.784;9.934;2023-04-30T04:58:43;4.80;89.50
15450;DHT22;7826;49.784;9.934;2023-04-30T05:01:10;4.80;99.90
15450;DHT22;7826;49.784;9.934;2023-04-30T05:03:36;4.80;1.00
15450;DHT22;7826;49.784;9.934;2023-04-30T05:06:03;4.90;1.00
15450;DHT22;7826;49.784;9.934;2023-04-30T05:08:30;4.90;1.00
15450;DHT22;7826;49.784;9.934;2023-04-30T05:10:57;5.00;1.00
15450;DHT22;7826;49.784;9.934;2023-04-30T05:13:23;5.00;99.90
15450;DHT22;7826;49.784;9.934;2023-04-30T05:15:51;5.10;99.90
15450;DHT22;7826;49.784;9.934;2023-04-30T05:18:18;5.10;99.90
15450;DHT22;7826;49.784;9.934;2023-04-30T05:20:44;5.20;96.40
15450;DHT22;7826;49.784;9.934;2023-04-30T05:23:11;5.20;99.90
15450;DHT22;7826;49.784;9.934;2023-04-30T05:25:37;5.20;1.00
15450;DHT22;7826;49.784;9.934;2023-04-30T05:28:04;5.20;99.90
15450;DHT22;7826;49.784;9.934;2023-04-30T05:30:31;5.20;99.90
15450;DHT22;7826;49.784;9.934;2023-04-30T05:32:58;5.20;1.00
15450;DHT22;7826;49.784;9.934;2023-04-30T05:35:24;5.30;1.00
15450;DHT22;7826;49.784;9.934;2023-04-30T05:37:51;5.40;1.00
15450;DHT22;7826;49.784;9.934;2023-04-30T05:40:17;5.40;1.00
15450;DHT22;7826;49.784;9.934;2023-04-30T05:42:44;5.40;1.00
15450;DHT22;7826;49.784;9.934;2023-04-30T05:45:12;5.50;1.00
15450;DHT22;7826;49.784;9.934;2023-04-30T05:47:40;5.60;1.00
15450;DHT22;7826;49.784;9.934;2023-04-30T05:50:08;5.60;1.00
15450;DHT22;7826;49.784;9.934;2023-04-30T05:52:34;5.70;1.00
15450;DHT22;7826;49.784;9.934;2023-04-30T05:55:01;5.70;1.00
15450;DHT22;7826;49.784;9.934;2023-04-30T05:57:28;5.80;1.00
15450;DHT22;7826;49.784;9.934;2023-04-30T05:59:54;5.80;99.90
15450;DHT22;7826;49.784;9.934;2023-04-30T06:02:21;5.90;99.90
15450;DHT22;7826;49.784;9.934;2023-04-30T06:04:47;5.90;99.90
15450;DHT22;7826;49.784;9.934;2023-04-30T06:07:13;6.00;99.90
15450;DHT22;7826;49.784;9.934;2023-04-30T06:09:40;6.10;99.90
15450;DHT22;7826;49.784;9.934;2023-04-30T06:12:06;6.10;99.90
15450;DHT22;7826;49.784;9.934;2023-04-30T06:14:34;6.20;99.90
15450;DHT22;7826;49.784;9.934;2023-04-30T06:17:00;6.30;99.90
15450;DHT22;7826;49.784;9.934;2023-04-30T06:19:27;6.30;99.90
15450;DHT22;7826;49.784;9.934;2023-04-30T06:21:53;6.50;99.90
15450;DHT22;7826;49.784;9.934;2023-04-30T06:24:19;6.50;99.90
15450;DHT22;7826;49.784;9.934;2023-04-30T06:26:45;6.60;99.90
15450;DHT22;7826;49.784;9.934;2023-04-30T06:29:12;6.70;99.90
15450;DHT22;7826;49.784;9.934;2023-04-30T06:31:38;6.70;99.90
15450;DHT22;7826;49.784;9.934;2023-04-30T06:34:04;6.80;99.90
15450;DHT22;7826;49.784;9.934;2023-04-30T06:36:31;6.90;99.90
15450;DHT22;7826;49.784;9.934;2023-04-30T06:38:57;6.90;99.90
15450;DHT22;7826;49.784;9.934;2023-04-30T06:41:23;7.10;99.90
15450;DHT22;7826;49.784;9.934;2023-04-30T06:43:50;7.10;99.90
15450;DHT22;7826;49.784;9.934;2023-04-30T06:46:16;7.30;99.90
15450;DHT22;7826;49.784;9.934;2023-04-30T06:48:43;7.50;99.90
15450;DHT22;7826;49.784;9.934;2023-04-30T06:51:09;7.70;99.90
15450;DHT22;7826;49.784;9.934;2023-04-30T06:53:36;8.20;99.90
15450;DHT22;7826;49.784;9.934;2023-04-30T06:56:03;8.60;99.90
15450;DHT22;7826;49.784;9.934;2023-04-30T06:58:29;9.10;99.90
15450;DHT22;7826;49.784;9.934;2023-04-30T07:00:55;9.30;99.90
15450;DHT22;7826;49.784;9.934;2023-04-30T07:03:23;9.60;99.90
15450;DHT22;7826;49.784;9.934;2023-04-30T07:05:49;10.10;99.90
15450;DHT22;7826;49.784;9.934;2023-04-30T07:08:16;10.20;99.90
15450;DHT22;7826;49.784;9.934;2023-04-30T07:10:43;10.50;99.90
15450;DHT22;7826;49.784;9.934;2023-04-30T07:13:09;10.40;99.90
15450;DHT22;7826;49.784;9.934;2023-04-30T07:15:37;10.90;99.90
15450;DHT22;7826;49.784;9.934;2023-04-30T07:18:03;11.00;99.90
15450;DHT22;7826;49.784;9.934;2023-04-30T07:20:29;11.00;99.90
15450;DHT22;7826;49.784;9.934;2023-04-30T07:22:56;10.50;99.90
15450;DHT22;7826;49.784;9.934;2023-04-30T07:25:22;10.50;99.90
15450;DHT22;7826;49.784;9.934;2023-04-30T07:27:50;10.90;99.90
15450;DHT22;7826;49.784;9.934;2023-04-30T07:30:18;10.90;99.90
15450;DHT22;7826;49.784;9.934;2023-04-30T07:32:44;10.80;99.90
15450;DHT22;7826;49.784;9.934;2023-04-30T07:35:10;10.30;99.90
15450;DHT22;7826;49.784;9.934;2023-04-30T07:37:37;10.40;99.90
15450;DHT22;7826;49.784;9.934;2023-04-30T07:40:04;10.70;99.90
15450;DHT22;7826;49.784;9.934;2023-04-30T07:42:32;10.80;99.90
15450;DHT22;7826;49.784;9.934;2023-04-30T07:44:58;10.60;99.90
15450;DHT22;7826;49.784;9.934;2023-04-30T07:47:25;10.60;99.90
15450;DHT22;7826;49.784;9.934;2023-04-30T07:49:56;10.50;99.90
15450;DHT22;7826;49.784;9.934;2023-04-30T07:52:23;10.90;99.90
15450;DHT22;7826;49.784;9.934;2023-04-30T07:54:49;11.30;99.90
15450;DHT22;7826;49.784;9.934;2023-04-30T07:57:15;11.80;1.00
15450;DHT22;7826;49.784;9.934;2023-04-30T07:59:42;11.60;1.00
15450;DHT22;7826;49.784;9.934;2023-04-30T08:02:08;11.90;1.00
15450;DHT22;7826;49.784;9.934;2023-04-30T08:04:35;11.80;1.00
15450;DHT22;7826;49.784;9.934;2023-04-30T08:07:02;12.10;1.00
15450;DHT22;7826;49.784;9.934;2023-04-30T08:09:29;12.40;1.00
15450;DHT22;7826;49.784;9.934;2023-04-30T08:11:56;12.40;1.00
15450;DHT22;7826;49.784;9.934;2023-04-30T08:14:22;12.70;1.00
15450;DHT22;7826;49.784;9.934;2023-04-30T08:16:48;13.30;1.00
15450;DHT22;7826;49.784;9.934;2023-04-30T08:19:14;13.20;1.00
15450;DHT22;7826;49.784;9.934;2023-04-30T08:21:41;13.50;1.00
15450;DHT22;7826;49.784;9.934;2023-04-30T08:24:07;13.20;1.00
15450;DHT22;7826;49.784;9.934;2023-04-30T08:26:33;13.70;1.00
15450;DHT22;7826;49.784;9.934;2023-04-30T08:29:00;13.90;1.00
15450;DHT22;7826;49.784;9.934;2023-04-30T08:31:26;14.20;1.00
15450;DHT22;7826;49.784;9.934;2023-04-30T08:33:53;14.10;1.00
15450;DHT22;7826;49.784;9.934;2023-04-30T08:36:19;14.00;1.00
15450;DHT22;7826;49.784;9.934;2023-04-30T08:38:46;14.00;1.00
15450;DHT22;7826;49.784;9.934;2023-04-30T08:41:13;13.80;1.00
15450;DHT22;7826;49.784;9.934;2023-04-30T08:43:42;14.00;1.00
15450;DHT22;7826;49.784;9.934;2023-04-30T08:46:11;14.20;1.00
15450;DHT22;7826;49.784;9.934;2023-04-30T08:48:40;13.80;1.00
15450;DHT22;7826;49.784;9.934;2023-04-30T08:51:06;14.00;1.00
15450;DHT22;7826;49.784;9.934;2023-04-30T08:53:36;14.40;1.00
15450;DHT22;7826;49.784;9.934;2023-04-30T08:56:03;14.50;1.00
15450;DHT22;7826;49.784;9.934;2023-04-30T08:58:30;14.70;1.00
15450;DHT22;7826;49.784;9.934;2023-04-30T09:01:00;14.70;1.00
15450;DHT22;7826;49.784;9.934;2023-04-30T09:03:27;14.30;1.00
15450;DHT22;7826;49.784;9.934;2023-04-30T09:05:54;14.40;1.00
15450;DHT22;7826;49.784;9.934;2023-04-30T09:11:26;13.80;1.00
15450;DHT22;7826;49.784;9.934;2023-04-30T09:13:58;14.60;1.00
15450;DHT22;7826;49.784;9.934;2023-04-30T09:16:26;14.60;1.00
15450;DHT22;7826;49.784;9.934;2023-04-30T09:18:53;14.00;1.00
15450;DHT22;7826;49.784;9.934;2023-04-30T09:21:33;14.00;1.00
15450;DHT22;7826;49.784;9.934;2023-04-30T09:24:04;14.50;1.00
15450;DHT22;7826;49.784;9.934;2023-04-30T09:26:33;14.40;1.00
15450;DHT22;7826;49.784;9.934;2023-04-30T09:29:00;14.40;1.00
15450;DHT22;7826;49.784;9.934;2023-04-30T09:31:36;14.10;1.00
15450;DHT22;7826;49.784;9.934;2023-04-30T09:34:04;13.90;1.00
15450;DHT22;7826;49.784;9.934;2023-04-30T09:36:32;14.10;1.00
15450;DHT22;7826;49.784;9.934;2023-04-30T09:39:08;14.20;94.50
15450;DHT22;7826;49.784;9.934;2023-04-30T09:41:43;14.20;66.40
15450;DHT22;7826;49.784;9.934;2023-04-30T09:44:26;14.30;97.90
15450;DHT22;7826;49.784;9.934;2023-04-30T09:46:57;14.00;99.90
15450;DHT22;7826;49.784;9.934;2023-04-30T09:49:24;14.20;99.90
15450;DHT22;7826;49.784;9.934;2023-04-30T09:51:59;14.40;99.90
15450;DHT22;7826;49.784;9.934;2023-04-30T09:54:28;14.40;99.90
15450;DHT22;7826;49.784;9.934;2023-04-30T09:56:57;14.40;93.20
15450;DHT22;7826;49.784;9.934;2023-04-30T09:59:34;14.20;69.20
15450;DHT22;7826;49.784;9.934;2023-04-30T10:02:03;14.40;96.40
15450;DHT22;7826;49.784;9.934;2023-04-30T10:04:36;14.40;99.90
15450;DHT22;7826;49.784;9.934;2023-04-30T10:07:13;14.40;99.90
15450;DHT22;7826;49.784;9.934;2023-04-30T10:09:58;14.50;99.90
15450;DHT22;7826;49.784;9.934;2023-04-30T10:12:49;14.60;34.30
15450;DHT22;7826;49.784;9.934;2023-04-30T10:15:24;14.50;35.20
15450;DHT22;7826;49.784;9.934;2023-04-30T10:18:03;14.50;64.40
15450;DHT22;7826;49.784;9.934;2023-04-30T10:20:34;14.70;21.40
15450;DHT22;7826;49.784;9.934;2023-04-30T10:23:02;14.60;82.80
15450;DHT22;7826;49.784;9.934;2023-04-30T10:25:30;14.50;99.90
15450;DHT22;7826;49.784;9.934;2023-04-30T10:28:00;14.80;79.50
15450;DHT22;7826;49.784;9.934;2023-04-30T10:30:27;15.00;99.90
15450;DHT22;7826;49.784;9.934;2023-04-30T10:33:04;15.30;72.80
15450;DHT22;7826;49.784;9.934;2023-04-30T10:38:28;15.50;99.90
15450;DHT22;7826;49.784;9.934;2023-04-30T10:40:57;15.60;99.90
15450;DHT22;7826;49.784;9.934;2023-04-30T10:43:24;15.50;99.90
15450;DHT22;7826;49.784;9.934;2023-04-30T10:45:51;14.90;99.90
15450;DHT22;7826;49.784;9.934;2023-04-30T10:48:21;15.30;99.90
15450;DHT22;7826;49.784;9.934;2023-04-30T10:50:58;15.50;99.90
15450;DHT22;7826;49.784;9.934;2023-04-30T10:53:25;15.70;99.90
15450;DHT22;7826;49.784;9.934;2023-04-30T10:56:02;15.80;99.90
15450;DHT22;7826;49.784;9.934;2023-04-30T10:58:35;16.00;99.90
15450;DHT22;7826;49.784;9.934;2023-04-30T11:01:14;16.10;99.90
15450;DHT22;7826;49.784;9.934;2023-04-30T11:03:42;16.00;99.90
15450;DHT22;7826;49.784;9.934;2023-04-30T11:06:15;16.20;99.90
15450;DHT22;7826;49.784;9.934;2023-04-30T11:08:45;16.40;99.90
15450;DHT22;7826;49.784;9.934;2023-04-30T11:11:17;16.30;99.90
15450;DHT22;7826;49.784;9.934;2023-04-30T11:13:44;15.90;99.90
15450;DHT22;7826;49.784;9.934;2023-04-30T11:16:11;15.60;99.90
15450;DHT22;7826;49.784;9.934;2023-04-30T11:18:46;15.70;99.90
15450;DHT22;7826;49.784;9.934;2023-04-30T11:21:13;16.00;99.90
15450;DHT22;7826;49.784;9.934;2023-04-30T11:23:43;15.90;99.90
15450;DHT22;7826;49.784;9.934;2023-04-30T11:26:10;15.90;99.90
15450;DHT22;7826;49.784;9.934;2023-04-30T11:28:37;16.30;99.90
15450;DHT22;7826;49.784;9.934;2023-04-30T11:31:03;16.40;99.90
15450;DHT22;7826;49.784;9.934;2023-04-30T11:33:31;16.80;99.90
15450;DHT22;7826;49.784;9.934;2023-04-30T11:35:59;16.90;99.90
15450;DHT22;7826;49.784;9.934;2023-04-30T11:38:27;17.50;99.90
15450;DHT22;7826;49.784;9.934;2023-04-30T11:40:53;17.50;99.90
15450;DHT22;7826;49.784;9.934;2023-04-30T11:43:38;17.50;99.90
15450;DHT22;7826;49.784;9.934;2023-04-30T11:46:12;17.30;99.90
15450;DHT22;7826;49.784;9.934;2023-04-30T11:48:42;17.40;99.90
15450;DHT22;7826;49.784;9.934;2023-04-30T11:51:20;17.50;99.90
15450;DHT22;7826;49.784;9.934;2023-04-30T11:53:48;17.50;99.90
15450;DHT22;7826;49.784;9.934;2023-04-30T11:56:24;17.40;99.90
15450;DHT22;7826;49.784;9.934;2023-04-30T11:58:52;17.60;99.90
15450;DHT22;7826;49.784;9.934;2023-04-30T12:01:18;17.80;99.90
15450;DHT22;7826;49.784;9.934;2023-04-30T12:03:47;18.00;99.90
15450;DHT22;7826;49.784;9.934;2023-04-30T12:06:21;17.50;99.90
15450;DHT22;7826;49.784;9.934;2023-04-30T12:08:48;17.30;99.90
15450;DHT22;7826;49.784;9.934;2023-04-30T12:11:25;17.10;99.90
15450;DHT22;7826;49.784;9.934;2023-04-30T12:13:53;17.20;99.90
15450;DHT22;7826;49.784;9.934;2023-04-30T12:16:20;17.00;99.90
15450;DHT22;7826;49.784;9.934;2023-04-30T12:18:46;17.30;99.90
15450;DHT22;7826;49.784;9.934;2023-04-30T12:21:13;17.50;99.90
15450;DHT22;7826;49.784;9.934;2023-04-30T12:23:40;17.60;99.90
15450;DHT22;7826;49.784;9.934;2023-04-30T12:26:07;17.60;99.90
15450;DHT22;7826;49.784;9.934;2023-04-30T12:28:34;18.10;99.90
15450;DHT22;7826;49.784;9.934;2023-04-30T12:31:00;18.40;99.90
15450;DHT22;7826;49.784;9.934;2023-04-30T12:33:31;18.20;99.90
15450;DHT22;7826;49.784;9.934;2023-04-30T12:35:57;17.90;99.90
15450;DHT22;7826;49.784;9.934;2023-04-30T12:38:24;17.60;99.90
15450;DHT22;7826;49.784;9.934;2023-04-30T12:40:50;17.60;99.90
15450;DHT22;7826;49.784;9.934;2023-04-30T12:43:17;17.60;99.90
15450;DHT22;7826;49.784;9.934;2023-04-30T12:45:45;17.80;99.90
15450;DHT22;7826;49.784;9.934;2023-04-30T12:48:13;17.70;99.90
15450;DHT22;7826;49.784;9.934;2023-04-30T12:50:39;18.00;99.90
15450;DHT22;7826;49.784;9.934;2023-04-30T12:53:06;18.10;99.90
15450;DHT22;7826;49.784;9.934;2023-04-30T12:55:32;17.90;99.90
15450;DHT22;7826;49.784;9.934;2023-04-30T12:58:06;18.20;99.90
15450;DHT22;7826;49.784;9.934;2023-04-30T13:03:14;18.50;99.90
15450;DHT22;7826;49.784;9.934;2023-04-30T13:05:40;18.50;99.90
15450;DHT22;7826;49.784;9.934;2023-04-30T13:08:07;18.50;99.90
15450;DHT22;7826;49.784;9.934;2023-04-30T13:10:34;18.80;99.90
15450;DHT22;7826;49.784;9.934;2023-04-30T13:13:00;18.80;99.90
15450;DHT22;7826;49.784;9.934;2023-04-30T13:15:27;18.70;99.90
15450;DHT22;7826;49.784;9.934;2023-04-30T13:17:53;18.80;99.90
15450;DHT22;7826;49.784;9.934;2023-04-30T13:20:20;18.80;99.90
15450;DHT22;7826;49.784;9.934;2023-04-30T13:22:47;18.60;99.90
15450;DHT22;7826;49.784;9.934;2023-04-30T13:25:13;18.40;99.90
15450;DHT22;7826;49.784;9.934;2023-04-30T13:27:39;18.30;99.90
15450;DHT22;7826;49.784;9.934;2023-04-30T13:30:06;18.00;99.90
15450;DHT22;7826;49.784;9.934;2023-04-30T13:32:33;17.80;99.90
15450;DHT22;7826;49.784;9.934;2023-04-30T13:34:59;18.00;99.90
15450;DHT22;7826;49.784;9.934;2023-04-30T13:37:26;18.10;99.90
15450;DHT22;7826;49.784;9.934;2023-04-30T13:39:52;18.10;99.90
15450;DHT22;7826;49.784;9.934;2023-04-30T13:42:18;18.20;99.90
15450;DHT22;7826;49.784;9.934;2023-04-30T13:44:45;18.10;99.90
15450;DHT22;7826;49.784;9.934;2023-04-30T13:47:13;18.20;99.90
15450;DHT22;7826;49.784;9.934;2023-04-30T13:49:40;17.80;99.90
15450;DHT22;7826;49.784;9.934;2023-04-30T13:52:06;17.80;1.00
15450;DHT22;7826;49.784;9.934;2023-04-30T13:54:32;17.80;99.90
15450;DHT22;7826;49.784;9.934;2023-04-30T13:56:59;18.00;99.90
15450;DHT22;7826;49.784;9.934;2023-04-30T13:59:25;18.20;99.90
15450;DHT22;7826;49.784;9.934;2023-04-30T14:01:51;18.20;99.90
15450;DHT22;7826;49.784;9.934;2023-04-30T14:04:17;18.10;1.00
15450;DHT22;7826;49.784;9.934;2023-04-30T14:06:44;18.00;99.90
15450;DHT22;7826;49.784;9.934;2023-04-30T14:09:10;17.80;99.90
15450;DHT22;7826;49.784;9.934;2023-04-30T14:11:36;17.50;99.90
15450;DHT22;7826;49.784;9.934;2023-04-30T14:14:03;17.00;99.90
15450;DHT22;7826;49.784;9.934;2023-04-30T14:16:30;16.50;99.90
15450;DHT22;7826;49.784;9.934;2023-04-30T14:18:57;16.70;99.90
15450;DHT22;7826;49.784;9.934;2023-04-30T14:21:23;16.60;99.90
15450;DHT22;7826;49.784;9.934;2023-04-30T14:23:49;16.00;99.90
15450;DHT22;7826;49.784;9.934;2023-04-30T14:26:17;15.80;99.90
15450;DHT22;7826;49.784;9.934;2023-04-30T14:28:43;15.70;99.90
15450;DHT22;7826;49.784;9.934;2023-04-30T14:31:10;15.60;99.90
15450;DHT22;7826;49.784;9.934;2023-04-30T14:33:36;15.60;99.90
15450;DHT22;7826;49.784;9.934;2023-04-30T14:36:02;15.60;99.90
15450;DHT22;7826;49.784;9.934;2023-04-30T14:38:29;15.50;99.90
15450;DHT22;7826;49.784;9.934;2023-04-30T14:40:55;15.40;99.90
15450;DHT22;7826;49.784;9.934;2023-04-30T14:43:21;15.40;99.90
15450;DHT22;7826;49.784;9.934;2023-04-30T14:45:49;15.40;99.90
15450;DHT22;7826;49.784;9.934;2023-04-30T14:48:15;15.40;99.90
15450;DHT22;7826;49.784;9.934;2023-04-30T14:50:43;15.70;99.90
15450;DHT22;7826;49.784;9.934;2023-04-30T14:53:09;15.90;99.90
15450;DHT22;7826;49.784;9.934;2023-04-30T14:55:37;16.20;99.90
15450;DHT22;7826;49.784;9.934;2023-04-30T14:58:04;16.20;99.90
15450;DHT22;7826;49.784;9.934;2023-04-30T15:00:31;16.10;99.90
15450;DHT22;7826;49.784;9.934;2023-04-30T15:02:58;16.10;99.90
15450;DHT22;7826;49.784;9.934;2023-04-30T15:05:25;16.40;99.90
15450;DHT22;7826;49.784;9.934;2023-04-30T15:07:51;16.40;99.90
15450;DHT22;7826;49.784;9.934;2023-04-30T15:10:18;16.20;99.90
15450;DHT22;7826;49.784;9.934;2023-04-30T15:12:44;16.20;99.90
15450;DHT22;7826;49.784;9.934;2023-04-30T15:15:11;16.20;99.90
15450;DHT22;7826;49.784;9.934;2023-04-30T15:17:37;16.20;99.90
15450;DHT22;7826;49.784;9.934;2023-04-30T15:20:04;16.30;99.90
15450;DHT22;7826;49.784;9.934;2023-04-30T15:22:31;16.10;99.90
15450;DHT22;7826;49.784;9.934;2023-04-30T15:25:00;16.00;99.90
15450;DHT22;7826;49.784;9.934;2023-04-30T15:27:27;15.90;99.90
15450;DHT22;7826;49.784;9.934;2023-04-30T15:29:53;15.70;99.90
15450;DHT22;7826;49.784;9.934;2023-04-30T15:32:20;15.60;99.90
15450;DHT22;7826;49.784;9.934;2023-04-30T15:34:46;15.80;99.90
15450;DHT22;7826;49.784;9.934;2023-04-30T15:37:12;15.80;99.90
15450;DHT22;7826;49.784;9.934;2023-04-30T15:39:38;15.80;99.90
15450;DHT22;7826;49.784;9.934;2023-04-30T15:42:05;15.60;99.90
15450;DHT22;7826;49.784;9.934;2023-04-30T15:44:31;15.30;99.90
15450;DHT22;7826;49.784;9.934;2023-04-30T15:46:58;15.50;99.90
15450;DHT22;7826;49.784;9.934;2023-04-30T15:49:24;15.30;99.90
15450;DHT22;7826;49.784;9.934;2023-04-30T15:51:51;15.20;99.90
15450;DHT22;7826;49.784;9.934;2023-04-30T15:54:17;15.40;99.90
15450;DHT22;7826;49.784;9.934;2023-04-30T15:56:44;15.40;99.90
15450;DHT22;7826;49.784;9.934;2023-04-30T15:59:10;15.30;99.90
15450;DHT22;7826;49.784;9.934;2023-04-30T16:01:42;15.10;99.90
15450;DHT22;7826;49.784;9.934;2023-04-30T16:04:08;15.20;99.90
15450;DHT22;7826;49.784;9.934;2023-04-30T16:06:35;15.20;99.90
15450;DHT22;7826;49.784;9.934;2023-04-30T16:09:02;15.20;99.90
15450;DHT22;7826;49.784;9.934;2023-04-30T16:11:34;15.10;99.90
15450;DHT22;7826;49.784;9.934;2023-04-30T16:14:01;15.00;99.90
15450;DHT22;7826;49.784;9.934;2023-04-30T16:16:27;15.10;99.90
15450;DHT22;7826;49.784;9.934;2023-04-30T16:18:54;14.90;99.90
15450;DHT22;7826;49.784;9.934;2023-04-30T16:21:20;14.70;99.90